sensor_id;sensor_type;location;lat;lon;timestamp;P1;durP1;ratioP1;P2;durP2;ratioP2
59093;SDS011;44880;52.814;18.270;2023-06-10T00:01:33;11.90;;;8.10;;
59093;SDS011;44880;52.814;18.270;2023-06-10T00:04:03;12.10;;;8.40;;
59093;SDS011;44880;52.814;18.270;2023-06-10T00:06:32;13.50;;;8.10;;
59093;SDS011;44880;52.814;18.270;2023-06-10T00:09:03;13.50;;;8.30;;
59093;SDS011;44880;52.814;18.270;2023-06-10T00:11:32;12.00;;;8.60;;
59093;SDS011;44880;52.814;18.270;2023-06-10T00:14:01;13.80;;;8.80;;
59093;SDS011;44880;52.814;18.270;2023-06-10T00:16:31;12.60;;;8.80;;
59093;SDS011;44880;52.814;18.270;2023-06-10T00:19:00;13.20;;;8.70;;
59093;SDS011;44880;52.814;18.270;2023-06-10T00:21:29;13.70;;;8.90;;
59093;SDS011;44880;52.814;18.270;2023-06-10T00:24:04;14.30;;;9.00;;
59093;SDS011;44880;52.814;18.270;2023-06-10T00:26:38;14.60;;;8.30;;
59093;SDS011;44880;52.814;18.270;2023-06-10T00:29:07;13.50;;;9.20;;
59093;SDS011;44880;52.814;18.270;2023-06-10T00:31:37;12.60;;;9.00;;
59093;SDS011;44880;52.814;18.270;2023-06-10T00:34:07;12.60;;;9.00;;
59093;SDS011;44880;52.814;18.270;2023-06-10T00:36:36;15.10;;;9.90;;
59093;SDS011;44880;52.814;18.270;2023-06-10T00:39:05;13.80;;;8.70;;
59093;SDS011;44880;52.814;18.270;2023-06-10T00:41:34;12.80;;;8.80;;
59093;SDS011;44880;52.814;18.270;2023-06-10T00:44:03;12.30;;;8.40;;
59093;SDS011;44880;52.814;18.270;2023-06-10T00:46:32;12.80;;;8.00;;
59093;SDS011;44880;52.814;18.270;2023-06-10T00:49:01;13.50;;;8.50;;
59093;SDS011;44880;52.814;18.270;2023-06-10T00:51:30;12.20;;;7.90;;
59093;SDS011;44880;52.814;18.270;2023-06-10T00:53:59;14.10;;;8.80;;
59093;SDS011;44880;52.814;18.270;2023-06-10T00:56:28;12.80;;;8.50;;
59093;SDS011;44880;52.814;18.270;2023-06-10T00:58:58;11.50;;;8.70;;
59093;SDS011;44880;52.814;18.270;2023-06-10T01:01:28;13.50;;;8.70;;
59093;SDS011;44880;52.814;18.270;2023-06-10T01:03:57;13.60;;;8.60;;
59093;SDS011;44880;52.814;18.270;2023-06-10T01:06:28;12.90;;;8.30;;
59093;SDS011;44880;52.814;18.270;2023-06-10T01:09:04;15.60;;;9.20;;
59093;SDS011;44880;52.814;18.270;2023-06-10T01:11:43;14.50;;;8.70;;
59093;SDS011;44880;52.814;18.270;2023-06-10T01:14:14;13.10;;;9.00;;
59093;SDS011;44880;52.814;18.270;2023-06-10T01:16:43;14.00;;;8.60;;
59093;SDS011;44880;52.814;18.270;2023-06-10T01:19:12;14.70;;;8.60;;
59093;SDS011;44880;52.814;18.270;2023-06-10T01:21:44;13.60;;;9.10;;
59093;SDS011;44880;52.814;18.270;2023-06-10T01:24:15;11.60;;;8.10;;
59093;SDS011;44880;52.814;18.270;2023-06-10T01:26:45;12.80;;;8.60;;
59093;SDS011;44880;52.814;18.270;2023-06-10T01:29:16;13.30;;;8.80;;
59093;SDS011;44880;52.814;18.270;2023-06-10T01:31:48;15.80;;;8.40;;
59093;SDS011;44880;52.814;18.270;2023-06-10T01:34:20;13.90;;;7.90;;
59093;SDS011;44880;52.814;18.270;2023-06-10T01:36:52;13.50;;;8.30;;
59093;SDS011;44880;52.814;18.270;2023-06-10T01:39:22;12.60;;;8.90;;
59093;SDS011;44880;52.814;18.270;2023-06-10T01:41:52;14.10;;;9.30;;
59093;SDS011;44880;52.814;18.270;2023-06-10T01:44:22;13.50;;;9.40;;
59093;SDS011;44880;52.814;18.270;2023-06-10T01:46:51;14.60;;;8.80;;
59093;SDS011;44880;52.814;18.270;2023-06-10T01:49:20;13.90;;;8.80;;
59093;SDS011;44880;52.814;18.270;2023-06-10T01:51:51;12.80;;;8.80;;
59093;SDS011;44880;52.814;18.270;2023-06-10T01:54:20;15.40;;;9.40;;
59093;SDS011;44880;52.814;18.270;2023-06-10T01:56:49;13.20;;;9.20;;
59093;SDS011;44880;52.814;18.270;2023-06-10T01:59:17;12.80;;;8.40;;
59093;SDS011;44880;52.814;18.270;2023-06-10T02:01:46;11.60;;;7.80;;
59093;SDS011;44880;52.814;18.270;2023-06-10T02:04:15;12.50;;;7.80;;
59093;SDS011;44880;52.814;18.270;2023-06-10T02:06:44;14.50;;;8.20;;
59093;SDS011;44880;52.814;18.270;2023-06-10T02:09:13;12.90;;;8.40;;
59093;SDS011;44880;52.814;18.270;2023-06-10T02:11:42;15.10;;;9.00;;
59093;SDS011;44880;52.814;18.270;2023-06-10T02:14:11;12.80;;;8.00;;
59093;SDS011;44880;52.814;18.270;2023-06-10T02:16:40;14.10;;;8.40;;
59093;SDS011;44880;52.814;18.270;2023-06-10T02:19:13;12.30;;;8.50;;
59093;SDS011;44880;52.814;18.270;2023-06-10T02:21:42;12.00;;;8.10;;
59093;SDS011;44880;52.814;18.270;2023-06-10T02:24:11;13.90;;;8.40;;
59093;SDS011;44880;52.814;18.270;2023-06-10T02:26:40;15.30;;;9.10;;
59093;SDS011;44880;52.814;18.270;2023-06-10T02:29:09;13.90;;;8.60;;
59093;SDS011;44880;52.814;18.270;2023-06-10T02:31:38;12.80;;;8.40;;
59093;SDS011;44880;52.814;18.270;2023-06-10T02:34:08;13.30;;;8.40;;
59093;SDS011;44880;52.814;18.270;2023-06-10T02:36:37;15.10;;;8.50;;
59093;SDS011;44880;52.814;18.270;2023-06-10T02:39:08;14.00;;;8.10;;
59093;SDS011;44880;52.814;18.270;2023-06-10T02:41:37;13.90;;;8.50;;
59093;SDS011;44880;52.814;18.270;2023-06-10T02:44:06;13.60;;;8.40;;
59093;SDS011;44880;52.814;18.270;2023-06-10T02:46:35;13.90;;;8.20;;
59093;SDS011;44880;52.814;18.270;2023-06-10T02:49:05;15.50;;;8.40;;
59093;SDS011;44880;52.814;18.270;2023-06-10T02:51:35;15.50;;;8.90;;
59093;SDS011;44880;52.814;18.270;2023-06-10T02:54:04;12.20;;;8.40;;
59093;SDS011;44880;52.814;18.270;2023-06-10T02:56:33;13.70;;;8.80;;
59093;SDS011;44880;52.814;18.270;2023-06-10T02:59:04;14.50;;;8.50;;
59093;SDS011;44880;52.814;18.270;2023-06-10T03:01:34;13.50;;;8.80;;
59093;SDS011;44880;52.814;18.270;2023-06-10T03:04:06;13.20;;;8.80;;
59093;SDS011;44880;52.814;18.270;2023-06-10T03:06:42;13.60;;;9.50;;
59093;SDS011;44880;52.814;18.270;2023-06-10T03:09:18;14.80;;;8.20;;
59093;SDS011;44880;52.814;18.270;2023-06-10T03:11:48;13.40;;;7.30;;
59093;SDS011;44880;52.814;18.270;2023-06-10T03:14:19;14.20;;;8.20;;
59093;SDS011;44880;52.814;18.270;2023-06-10T03:16:51;14.30;;;7.60;;
59093;SDS011;44880;52.814;18.270;2023-06-10T03:19:20;13.90;;;8.10;;
59093;SDS011;44880;52.814;18.270;2023-06-10T03:21:57;13.00;;;7.80;;
59093;SDS011;44880;52.814;18.270;2023-06-10T03:24:36;14.40;;;9.00;;
59093;SDS011;44880;52.814;18.270;2023-06-10T03:27:09;13.40;;;8.70;;
59093;SDS011;44880;52.814;18.270;2023-06-10T03:29:38;13.20;;;8.60;;
59093;SDS011;44880;52.814;18.270;2023-06-10T03:32:08;14.00;;;8.40;;
59093;SDS011;44880;52.814;18.270;2023-06-10T03:34:41;14.70;;;8.10;;
59093;SDS011;44880;52.814;18.270;2023-06-10T03:37:16;12.00;;;7.80;;
59093;SDS011;44880;52.814;18.270;2023-06-10T03:39:47;13.70;;;8.10;;
59093;SDS011;44880;52.814;18.270;2023-06-10T03:42:16;12.80;;;7.80;;
59093;SDS011;44880;52.814;18.270;2023-06-10T03:44:49;13.30;;;7.90;;
59093;SDS011;44880;52.814;18.270;2023-06-10T03:47:23;14.50;;;7.50;;
59093;SDS011;44880;52.814;18.270;2023-06-10T03:49:52;13.30;;;7.10;;
59093;SDS011;44880;52.814;18.270;2023-06-10T03:52:21;12.40;;;6.70;;
59093;SDS011;44880;52.814;18.270;2023-06-10T03:55:07;11.10;;;6.70;;
59093;SDS011;44880;52.814;18.270;2023-06-10T03:57:38;14.10;;;7.50;;
59093;SDS011;44880;52.814;18.270;2023-06-10T04:00:08;11.90;;;7.00;;
59093;SDS011;44880;52.814;18.270;2023-06-10T04:02:42;13.70;;;7.40;;
59093;SDS011;44880;52.814;18.270;2023-06-10T04:05:24;11.40;;;7.40;;
59093;SDS011;44880;52.814;18.270;2023-06-10T04:07:53;15.40;;;7.20;;
59093;SDS011;44880;52.814;18.270;2023-06-10T04:10:22;11.90;;;6.60;;
59093;SDS011;44880;52.814;18.270;2023-06-10T04:12:51;13.30;;;7.00;;
59093;SDS011;44880;52.814;18.270;2023-06-10T04:15:36;14.70;;;7.70;;
59093;SDS011;44880;52.814;18.270;2023-06-10T04:18:07;12.60;;;6.40;;
59093;SDS011;44880;52.814;18.270;2023-06-10T04:20:36;12.90;;;6.90;;
59093;SDS011;44880;52.814;18.270;2023-06-10T04:23:05;12.00;;;6.80;;
59093;SDS011;44880;52.814;18.270;2023-06-10T04:25:45;11.00;;;6.60;;
59093;SDS011;44880;52.814;18.270;2023-06-10T04:28:14;10.50;;;6.20;;
59093;SDS011;44880;52.814;18.270;2023-06-10T04:30:44;12.70;;;6.30;;
59093;SDS011;44880;52.814;18.270;2023-06-10T04:33:13;12.00;;;6.80;;
59093;SDS011;44880;52.814;18.270;2023-06-10T04:35:52;11.50;;;6.60;;
59093;SDS011;44880;52.814;18.270;2023-06-10T04:38:22;13.00;;;6.70;;
59093;SDS011;44880;52.814;18.270;2023-06-10T04:40:51;12.40;;;7.00;;
59093;SDS011;44880;52.814;18.270;2023-06-10T04:43:23;12.30;;;6.40;;
59093;SDS011;44880;52.814;18.270;2023-06-10T04:46:01;12.60;;;6.40;;
59093;SDS011;44880;52.814;18.270;2023-06-10T04:48:30;13.80;;;6.50;;
59093;SDS011;44880;52.814;18.270;2023-06-10T04:53:30;10.60;;;6.00;;
59093;SDS011;44880;52.814;18.270;2023-06-10T04:56:03;12.00;;;6.00;;
59093;SDS011;44880;52.814;18.270;2023-06-10T04:58:32;14.00;;;5.90;;
59093;SDS011;44880;52.814;18.270;2023-06-10T05:01:14;12.30;;;5.80;;
59093;SDS011;44880;52.814;18.270;2023-06-10T05:03:49;11.70;;;6.50;;
59093;SDS011;44880;52.814;18.270;2023-06-10T05:06:18;10.80;;;5.70;;
59093;SDS011;44880;52.814;18.270;2023-06-10T05:08:47;11.90;;;5.90;;
59093;SDS011;44880;52.814;18.270;2023-06-10T05:11:43;11.00;;;5.50;;
59093;SDS011;44880;52.814;18.270;2023-06-10T05:14:13;12.60;;;6.20;;
59093;SDS011;44880;52.814;18.270;2023-06-10T05:16:49;11.70;;;5.90;;
59093;SDS011;44880;52.814;18.270;2023-06-10T05:19:27;10.50;;;5.60;;
59093;SDS011;44880;52.814;18.270;2023-06-10T05:22:00;12.20;;;5.90;;
59093;SDS011;44880;52.814;18.270;2023-06-10T05:24:29;13.90;;;6.10;;
59093;SDS011;44880;52.814;18.270;2023-06-10T05:29:42;10.00;;;5.60;;
59093;SDS011;44880;52.814;18.270;2023-06-10T05:32:12;10.10;;;5.30;;
59093;SDS011;44880;52.814;18.270;2023-06-10T05:34:41;11.50;;;5.90;;
59093;SDS011;44880;52.814;18.270;2023-06-10T05:37:28;13.70;;;5.70;;
59093;SDS011;44880;52.814;18.270;2023-06-10T05:40:07;12.00;;;5.90;;
59093;SDS011;44880;52.814;18.270;2023-06-10T05:45:41;11.00;;;5.80;;
59093;SDS011;44880;52.814;18.270;2023-06-10T05:48:10;11.20;;;5.60;;
59093;SDS011;44880;52.814;18.270;2023-06-10T05:50:48;10.00;;;5.70;;
59093;SDS011;44880;52.814;18.270;2023-06-10T05:53:23;12.00;;;6.40;;
59093;SDS011;44880;52.814;18.270;2023-06-10T05:55:52;11.40;;;5.90;;
59093;SDS011;44880;52.814;18.270;2023-06-10T06:01:18;12.40;;;5.50;;
59093;SDS011;44880;52.814;18.270;2023-06-10T06:03:47;11.90;;;6.00;;
59093;SDS011;44880;52.814;18.270;2023-06-10T06:09:30;10.00;;;5.60;;
59093;SDS011;44880;52.814;18.270;2023-06-10T06:14:42;12.30;;;5.70;;
59093;SDS011;44880;52.814;18.270;2023-06-10T06:17:16;10.50;;;5.40;;
59093;SDS011;44880;52.814;18.270;2023-06-10T06:19:45;11.20;;;5.50;;
59093;SDS011;44880;52.814;18.270;2023-06-10T06:22:30;10.90;;;5.80;;
59093;SDS011;44880;52.814;18.270;2023-06-10T06:25:00;11.70;;;6.40;;
59093;SDS011;44880;52.814;18.270;2023-06-10T06:27:29;12.30;;;5.60;;
59093;SDS011;44880;52.814;18.270;2023-06-10T06:29:59;11.60;;;5.30;;
59093;SDS011;44880;52.814;18.270;2023-06-10T06:32:38;11.30;;;5.30;;
59093;SDS011;44880;52.814;18.270;2023-06-10T06:35:07;11.80;;;5.70;;
59093;SDS011;44880;52.814;18.270;2023-06-10T06:37:37;9.90;;;5.30;;
59093;SDS011;44880;52.814;18.270;2023-06-10T06:40:32;9.70;;;5.30;;
59093;SDS011;44880;52.814;18.270;2023-06-10T06:43:01;11.60;;;5.30;;
59093;SDS011;44880;52.814;18.270;2023-06-10T06:46:18;10.50;;;5.40;;
59093;SDS011;44880;52.814;18.270;2023-06-10T06:48:48;9.60;;;5.10;;
59093;SDS011;44880;52.814;18.270;2023-06-10T06:51:19;11.30;;;5.20;;
59093;SDS011;44880;52.814;18.270;2023-06-10T06:53:52;11.20;;;6.10;;
59093;SDS011;44880;52.814;18.270;2023-06-10T06:56:30;12.40;;;5.30;;
59093;SDS011;44880;52.814;18.270;2023-06-10T06:58:59;11.80;;;5.60;;
59093;SDS011;44880;52.814;18.270;2023-06-10T07:01:33;11.90;;;5.50;;
59093;SDS011;44880;52.814;18.270;2023-06-10T07:04:12;10.70;;;5.30;;
59093;SDS011;44880;52.814;18.270;2023-06-10T07:06:42;9.70;;;5.60;;
59093;SDS011;44880;52.814;18.270;2023-06-10T07:09:11;12.40;;;5.80;;
59093;SDS011;44880;52.814;18.270;2023-06-10T07:11:54;10.90;;;4.70;;
59093;SDS011;44880;52.814;18.270;2023-06-10T07:14:23;12.20;;;5.40;;
59093;SDS011;44880;52.814;18.270;2023-06-10T07:16:53;12.50;;;5.50;;
59093;SDS011;44880;52.814;18.270;2023-06-10T07:19:22;11.60;;;4.80;;
59093;SDS011;44880;52.814;18.270;2023-06-10T07:24:35;11.80;;;5.00;;
59093;SDS011;44880;52.814;18.270;2023-06-10T07:27:05;10.30;;;4.70;;
59093;SDS011;44880;52.814;18.270;2023-06-10T07:29:34;9.90;;;4.80;;
59093;SDS011;44880;52.814;18.270;2023-06-10T07:32:10;10.80;;;4.70;;
59093;SDS011;44880;52.814;18.270;2023-06-10T07:34:39;11.10;;;4.90;;
59093;SDS011;44880;52.814;18.270;2023-06-10T07:37:11;10.80;;;5.20;;
59093;SDS011;44880;52.814;18.270;2023-06-10T07:39:40;12.10;;;5.40;;
59093;SDS011;44880;52.814;18.270;2023-06-10T07:42:19;11.10;;;4.80;;
59093;SDS011;44880;52.814;18.270;2023-06-10T07:44:51;10.40;;;4.90;;
59093;SDS011;44880;52.814;18.270;2023-06-10T07:47:20;10.30;;;5.10;;
59093;SDS011;44880;52.814;18.270;2023-06-10T07:49:50;12.50;;;4.40;;
59093;SDS011;44880;52.814;18.270;2023-06-10T07:52:28;10.10;;;5.10;;
59093;SDS011;44880;52.814;18.270;2023-06-10T07:58:04;8.50;;;4.70;;
59093;SDS011;44880;52.814;18.270;2023-06-10T08:03:19;9.20;;;4.80;;
59093;SDS011;44880;52.814;18.270;2023-06-10T08:05:57;10.60;;;5.00;;
59093;SDS011;44880;52.814;18.270;2023-06-10T08:11:15;11.70;;;4.80;;
59093;SDS011;44880;52.814;18.270;2023-06-10T08:16:50;9.40;;;4.60;;
59093;SDS011;44880;52.814;18.270;2023-06-10T08:19:32;11.30;;;4.90;;
59093;SDS011;44880;52.814;18.270;2023-06-10T08:24:54;10.80;;;4.90;;
59093;SDS011;44880;52.814;18.270;2023-06-10T08:27:51;10.30;;;4.60;;
59093;SDS011;44880;52.814;18.270;2023-06-10T08:30:23;9.60;;;4.30;;
59093;SDS011;44880;52.814;18.270;2023-06-10T08:32:59;11.10;;;4.70;;
59093;SDS011;44880;52.814;18.270;2023-06-10T08:35:44;9.70;;;4.50;;
59093;SDS011;44880;52.814;18.270;2023-06-10T08:38:13;8.70;;;4.00;;
59093;SDS011;44880;52.814;18.270;2023-06-10T08:43:39;11.30;;;4.50;;
59093;SDS011;44880;52.814;18.270;2023-06-10T08:46:09;8.70;;;4.20;;
59093;SDS011;44880;52.814;18.270;2023-06-10T08:48:56;10.40;;;4.70;;
59093;SDS011;44880;52.814;18.270;2023-06-10T08:51:48;8.80;;;4.40;;
59093;SDS011;44880;52.814;18.270;2023-06-10T08:54:24;9.50;;;4.10;;
59093;SDS011;44880;52.814;18.270;2023-06-10T08:57:09;9.10;;;3.90;;
59093;SDS011;44880;52.814;18.270;2023-06-10T08:59:38;9.10;;;4.00;;
59093;SDS011;44880;52.814;18.270;2023-06-10T09:02:19;11.60;;;4.40;;
59093;SDS011;44880;52.814;18.270;2023-06-10T09:07:34;9.30;;;4.10;;
59093;SDS011;44880;52.814;18.270;2023-06-10T09:10:10;9.40;;;4.40;;
59093;SDS011;44880;52.814;18.270;2023-06-10T09:12:55;9.20;;;4.30;;
59093;SDS011;44880;52.814;18.270;2023-06-10T09:15:24;9.70;;;3.90;;
59093;SDS011;44880;52.814;18.270;2023-06-10T09:18:04;10.80;;;4.20;;
59093;SDS011;44880;52.814;18.270;2023-06-10T09:20:49;8.30;;;4.20;;
59093;SDS011;44880;52.814;18.270;2023-06-10T09:23:18;8.80;;;3.90;;
59093;SDS011;44880;52.814;18.270;2023-06-10T09:25:57;10.10;;;3.90;;
59093;SDS011;44880;52.814;18.270;2023-06-10T09:31:16;9.50;;;4.20;;
59093;SDS011;44880;52.814;18.270;2023-06-10T09:37:00;9.30;;;4.40;;
59093;SDS011;44880;52.814;18.270;2023-06-10T09:45:35;11.30;;;4.00;;
59093;SDS011;44880;52.814;18.270;2023-06-10T09:48:04;10.60;;;4.10;;
59093;SDS011;44880;52.814;18.270;2023-06-10T09:50:42;9.10;;;4.10;;
59093;SDS011;44880;52.814;18.270;2023-06-10T09:56:01;9.80;;;3.90;;
59093;SDS011;44880;52.814;18.270;2023-06-10T09:58:38;8.50;;;3.70;;
59093;SDS011;44880;52.814;18.270;2023-06-10T10:01:32;9.50;;;4.20;;
59093;SDS011;44880;52.814;18.270;2023-06-10T10:04:02;9.50;;;3.70;;
59093;SDS011;44880;52.814;18.270;2023-06-10T10:09:35;9.70;;;3.90;;
59093;SDS011;44880;52.814;18.270;2023-06-10T10:12:09;8.90;;;3.90;;
59093;SDS011;44880;52.814;18.270;2023-06-10T10:17:22;9.50;;;3.30;;
59093;SDS011;44880;52.814;18.270;2023-06-10T10:20:01;9.60;;;3.70;;
59093;SDS011;44880;52.814;18.270;2023-06-10T10:22:45;8.80;;;3.60;;
59093;SDS011;44880;52.814;18.270;2023-06-10T10:25:16;9.50;;;3.50;;
59093;SDS011;44880;52.814;18.270;2023-06-10T10:27:55;11.60;;;3.60;;
59093;SDS011;44880;52.814;18.270;2023-06-10T10:33:18;7.60;;;3.30;;
59093;SDS011;44880;52.814;18.270;2023-06-10T10:35:58;10.40;;;4.10;;
59093;SDS011;44880;52.814;18.270;2023-06-10T10:38:43;8.40;;;3.60;;
59093;SDS011;44880;52.814;18.270;2023-06-10T10:44:26;9.90;;;3.80;;
59093;SDS011;44880;52.814;18.270;2023-06-10T10:47:14;8.60;;;3.40;;
59093;SDS011;44880;52.814;18.270;2023-06-10T10:49:48;8.70;;;3.50;;
59093;SDS011;44880;52.814;18.270;2023-06-10T10:52:20;7.80;;;3.20;;
59093;SDS011;44880;52.814;18.270;2023-06-10T10:54:56;10.00;;;3.70;;
59093;SDS011;44880;52.814;18.270;2023-06-10T11:00:10;8.80;;;3.40;;
59093;SDS011;44880;52.814;18.270;2023-06-10T11:02:51;9.70;;;3.40;;
59093;SDS011;44880;52.814;18.270;2023-06-10T11:05:37;8.90;;;3.40;;
59093;SDS011;44880;52.814;18.270;2023-06-10T11:11:20;9.40;;;3.40;;
59093;SDS011;44880;52.814;18.270;2023-06-10T11:14:09;8.80;;;3.50;;
59093;SDS011;44880;52.814;18.270;2023-06-10T11:16:53;10.10;;;3.40;;
59093;SDS011;44880;52.814;18.270;2023-06-10T11:22:28;7.90;;;3.20;;
59093;SDS011;44880;52.814;18.270;2023-06-10T11:24:57;10.10;;;3.50;;
59093;SDS011;44880;52.814;18.270;2023-06-10T11:27:38;8.60;;;3.10;;
59093;SDS011;44880;52.814;18.270;2023-06-10T11:30:23;14.30;;;3.10;;
59093;SDS011;44880;52.814;18.270;2023-06-10T11:33:01;8.20;;;3.50;;
59093;SDS011;44880;52.814;18.270;2023-06-10T11:35:39;8.70;;;3.20;;
59093;SDS011;44880;52.814;18.270;2023-06-10T11:38:18;10.40;;;3.60;;
59093;SDS011;44880;52.814;18.270;2023-06-10T11:40:59;8.60;;;3.30;;
59093;SDS011;44880;52.814;18.270;2023-06-10T11:43:35;9.10;;;3.30;;
59093;SDS011;44880;52.814;18.270;2023-06-10T11:46:06;7.80;;;3.00;;
59093;SDS011;44880;52.814;18.270;2023-06-10T11:48:35;9.60;;;3.00;;
59093;SDS011;44880;52.814;18.270;2023-06-10T11:54:16;10.10;;;3.00;;
59093;SDS011;44880;52.814;18.270;2023-06-10T12:00:04;7.90;;;3.30;;
59093;SDS011;44880;52.814;18.270;2023-06-10T12:05:29;8.50;;;3.00;;
59093;SDS011;44880;52.814;18.270;2023-06-10T12:08:11;7.90;;;2.90;;
59093;SDS011;44880;52.814;18.270;2023-06-10T12:10:54;7.80;;;2.70;;
59093;SDS011;44880;52.814;18.270;2023-06-10T12:13:23;8.20;;;3.00;;
59093;SDS011;44880;52.814;18.270;2023-06-10T12:16:30;8.50;;;3.00;;
59093;SDS011;44880;52.814;18.270;2023-06-10T12:19:02;7.80;;;2.80;;
59093;SDS011;44880;52.814;18.270;2023-06-10T12:21:55;8.90;;;3.00;;
59093;SDS011;44880;52.814;18.270;2023-06-10T12:24:40;8.10;;;2.70;;
59093;SDS011;44880;52.814;18.270;2023-06-10T12:28:00;8.30;;;3.10;;
59093;SDS011;44880;52.814;18.270;2023-06-10T12:30:30;9.10;;;2.70;;
59093;SDS011;44880;52.814;18.270;2023-06-10T12:35:55;9.20;;;3.10;;
59093;SDS011;44880;52.814;18.270;2023-06-10T12:38:34;8.10;;;2.70;;
59093;SDS011;44880;52.814;18.270;2023-06-10T12:41:08;8.30;;;2.70;;
59093;SDS011;44880;52.814;18.270;2023-06-10T12:43:49;8.40;;;2.70;;
59093;SDS011;44880;52.814;18.270;2023-06-10T12:49:25;8.10;;;2.60;;
59093;SDS011;44880;52.814;18.270;2023-06-10T12:54:34;8.60;;;2.60;;
59093;SDS011;44880;52.814;18.270;2023-06-10T12:57:13;8.60;;;2.60;;
59093;SDS011;44880;52.814;18.270;2023-06-10T12:59:44;8.20;;;2.70;;
59093;SDS011;44880;52.814;18.270;2023-06-10T13:02:31;7.10;;;2.60;;
59093;SDS011;44880;52.814;18.270;2023-06-10T13:05:10;7.60;;;2.70;;
59093;SDS011;44880;52.814;18.270;2023-06-10T13:10:25;7.70;;;2.90;;
59093;SDS011;44880;52.814;18.270;2023-06-10T13:13:04;8.20;;;2.20;;
59093;SDS011;44880;52.814;18.270;2023-06-10T13:15:45;7.30;;;2.50;;
59093;SDS011;44880;52.814;18.270;2023-06-10T13:18:17;6.80;;;2.50;;
59093;SDS011;44880;52.814;18.270;2023-06-10T13:21:10;8.10;;;2.50;;
59093;SDS011;44880;52.814;18.270;2023-06-10T13:23:55;8.80;;;2.40;;
59093;SDS011;44880;52.814;18.270;2023-06-10T13:26:36;6.90;;;2.40;;
59093;SDS011;44880;52.814;18.270;2023-06-10T13:29:15;7.90;;;2.60;;
59093;SDS011;44880;52.814;18.270;2023-06-10T13:32:00;7.80;;;2.60;;
59093;SDS011;44880;52.814;18.270;2023-06-10T13:34:29;6.20;;;2.00;;
59093;SDS011;44880;52.814;18.270;2023-06-10T13:50:52;7.30;;;2.50;;
59093;SDS011;44880;52.814;18.270;2023-06-10T13:53:39;7.30;;;2.40;;
59093;SDS011;44880;52.814;18.270;2023-06-10T14:04:53;7.00;;;2.30;;
59093;SDS011;44880;52.814;18.270;2023-06-10T14:07:35;8.30;;;2.40;;
59093;SDS011;44880;52.814;18.270;2023-06-10T14:15:42;7.30;;;2.50;;
59093;SDS011;44880;52.814;18.270;2023-06-10T14:18:24;9.50;;;2.50;;
59093;SDS011;44880;52.814;18.270;2023-06-10T14:23:36;7.90;;;2.50;;
59093;SDS011;44880;52.814;18.270;2023-06-10T14:26:19;7.50;;;2.30;;
59093;SDS011;44880;52.814;18.270;2023-06-10T14:28:59;7.50;;;2.50;;
59093;SDS011;44880;52.814;18.270;2023-06-10T14:44:56;8.70;;;2.70;;
59093;SDS011;44880;52.814;18.270;2023-06-10T14:47:43;7.20;;;2.60;;
59093;SDS011;44880;52.814;18.270;2023-06-10T14:50:53;7.80;;;2.90;;
59093;SDS011;44880;52.814;18.270;2023-06-10T14:53:32;9.30;;;2.50;;
59093;SDS011;44880;52.814;18.270;2023-06-10T15:07:51;7.60;;;2.60;;
59093;SDS011;44880;52.814;18.270;2023-06-10T15:13:23;7.50;;;2.30;;
59093;SDS011;44880;52.814;18.270;2023-06-10T15:15:55;8.10;;;2.60;;
59093;SDS011;44880;52.814;18.270;2023-06-10T15:21:28;9.60;;;2.60;;
59093;SDS011;44880;52.814;18.270;2023-06-10T15:24:15;8.60;;;2.60;;
59093;SDS011;44880;52.814;18.270;2023-06-10T15:26:55;6.80;;;2.40;;
59093;SDS011;44880;52.814;18.270;2023-06-10T15:29:26;6.60;;;2.10;;
59093;SDS011;44880;52.814;18.270;2023-06-10T15:35:04;8.10;;;2.40;;
59093;SDS011;44880;52.814;18.270;2023-06-10T15:38:50;6.80;;;2.20;;
59093;SDS011;44880;52.814;18.270;2023-06-10T15:41:43;7.70;;;2.40;;
59093;SDS011;44880;52.814;18.270;2023-06-10T15:44:27;7.80;;;2.40;;
59093;SDS011;44880;52.814;18.270;2023-06-10T15:47:11;7.10;;;2.30;;
59093;SDS011;44880;52.814;18.270;2023-06-10T15:49:43;7.60;;;2.80;;
59093;SDS011;44880;52.814;18.270;2023-06-10T15:52:35;7.80;;;2.40;;
59093;SDS011;44880;52.814;18.270;2023-06-10T15:55:30;7.90;;;2.60;;
59093;SDS011;44880;52.814;18.270;2023-06-10T16:00:56;7.60;;;2.70;;
59093;SDS011;44880;52.814;18.270;2023-06-10T16:03:36;7.40;;;3.00;;
59093;SDS011;44880;52.814;18.270;2023-06-10T16:11:51;7.00;;;2.20;;
59093;SDS011;44880;52.814;18.270;2023-06-10T16:14:29;6.70;;;2.00;;
59093;SDS011;44880;52.814;18.270;2023-06-10T16:17:38;6.80;;;2.20;;
59093;SDS011;44880;52.814;18.270;2023-06-10T16:20:17;7.30;;;2.50;;
59093;SDS011;44880;52.814;18.270;2023-06-10T16:23:53;8.40;;;2.60;;
59093;SDS011;44880;52.814;18.270;2023-06-10T16:26:50;6.20;;;2.40;;
59093;SDS011;44880;52.814;18.270;2023-06-10T16:29:31;7.90;;;2.10;;
59093;SDS011;44880;52.814;18.270;2023-06-10T16:34:53;8.40;;;2.60;;
59093;SDS011;44880;52.814;18.270;2023-06-10T16:37:34;6.50;;;2.20;;
59093;SDS011;44880;52.814;18.270;2023-06-10T16:40:23;7.00;;;2.10;;
59093;SDS011;44880;52.814;18.270;2023-06-10T16:43:12;7.50;;;2.30;;
59093;SDS011;44880;52.814;18.270;2023-06-10T16:45:57;9.80;;;2.40;;
59093;SDS011;44880;52.814;18.270;2023-06-10T16:48:38;6.90;;;2.30;;
59093;SDS011;44880;52.814;18.270;2023-06-10T16:57:01;9.40;;;2.40;;
59093;SDS011;44880;52.814;18.270;2023-06-10T16:59:33;8.70;;;2.20;;
59093;SDS011;44880;52.814;18.270;2023-06-10T17:05:09;6.40;;;2.30;;
59093;SDS011;44880;52.814;18.270;2023-06-10T17:07:58;7.70;;;2.20;;
59093;SDS011;44880;52.814;18.270;2023-06-10T17:11:09;7.90;;;2.20;;
59093;SDS011;44880;52.814;18.270;2023-06-10T17:13:54;7.80;;;2.20;;
59093;SDS011;44880;52.814;18.270;2023-06-10T17:16:25;6.40;;;2.30;;
59093;SDS011;44880;52.814;18.270;2023-06-10T17:19:14;7.00;;;2.40;;
59093;SDS011;44880;52.814;18.270;2023-06-10T17:22:26;7.70;;;2.30;;
59093;SDS011;44880;52.814;18.270;2023-06-10T17:25:11;8.90;;;2.40;;
59093;SDS011;44880;52.814;18.270;2023-06-10T17:27:43;6.80;;;2.20;;
59093;SDS011;44880;52.814;18.270;2023-06-10T17:33:24;7.50;;;2.30;;
59093;SDS011;44880;52.814;18.270;2023-06-10T17:36:40;7.60;;;2.40;;
59093;SDS011;44880;52.814;18.270;2023-06-10T17:39:25;9.20;;;2.60;;
59093;SDS011;44880;52.814;18.270;2023-06-10T17:42:06;8.10;;;2.50;;
59093;SDS011;44880;52.814;18.270;2023-06-10T17:44:38;7.60;;;2.60;;
59093;SDS011;44880;52.814;18.270;2023-06-10T17:50:22;7.70;;;2.30;;
59093;SDS011;44880;52.814;18.270;2023-06-10T17:55:51;8.90;;;2.40;;
59093;SDS011;44880;52.814;18.270;2023-06-10T17:58:28;6.70;;;2.00;;
59093;SDS011;44880;52.814;18.270;2023-06-10T18:06:52;7.50;;;2.20;;
59093;SDS011;44880;52.814;18.270;2023-06-10T18:09:24;6.00;;;2.10;;
59093;SDS011;44880;52.814;18.270;2023-06-10T18:12:28;6.90;;;2.30;;
59093;SDS011;44880;52.814;18.270;2023-06-10T18:14:59;8.10;;;2.20;;
59093;SDS011;44880;52.814;18.270;2023-06-10T18:20:38;7.20;;;2.30;;
59093;SDS011;44880;52.814;18.270;2023-06-10T18:23:28;7.80;;;2.30;;
59093;SDS011;44880;52.814;18.270;2023-06-10T18:26:14;7.80;;;2.30;;
59093;SDS011;44880;52.814;18.270;2023-06-10T18:28:55;7.70;;;2.30;;
59093;SDS011;44880;52.814;18.270;2023-06-10T18:31:40;7.70;;;2.40;;
59093;SDS011;44880;52.814;18.270;2023-06-10T18:34:17;9.00;;;2.50;;
59093;SDS011;44880;52.814;18.270;2023-06-10T18:39:47;8.20;;;2.40;;
59093;SDS011;44880;52.814;18.270;2023-06-10T18:43:07;7.70;;;2.40;;